sensor_id;sensor_type;location;lat;lon;timestamp;pressure;altitude;pressure_sealevel;temperature
71205;BMP180;58935;54.498;18.544;2024-03-08T00:01:05;101606.40;;;0.40
71205;BMP180;58935;54.498;18.544;2024-03-08T00:03:32;101608.00;;;0.40
71205;BMP180;58935;54.498;18.544;2024-03-08T00:06:00;101599.80;;;0.32
71205;BMP180;58935;54.498;18.544;2024-03-08T00:08:25;101597.20;;;0.34
71205;BMP180;58935;54.498;18.544;2024-03-08T00:10:51;101596.00;;;0.32
71205;BMP180;58935;54.498;18.544;2024-03-08T00:13:16;101594.80;;;0.30
71205;BMP180;58935;54.498;18.544;2024-03-08T00:15:41;101596.40;;;0.30
71205;BMP180;58935;54.498;18.544;2024-03-08T00:18:07;101592.60;;;0.30
71205;BMP180;58935;54.498;18.544;2024-03-08T00:20:32;101587.40;;;0.30
71205;BMP180;58935;54.498;18.544;2024-03-08T00:22:58;101590.60;;;0.30
71205;BMP180;58935;54.498;18.544;2024-03-08T00:25:24;101592.40;;;0.30
71205;BMP180;58935;54.498;18.544;2024-03-08T00:27:49;101589.40;;;0.30
71205;BMP180;58935;54.498;18.544;2024-03-08T00:30:14;101590.00;;;0.20
71205;BMP180;58935;54.498;18.544;2024-03-08T00:32:40;101590.60;;;0.20
71205;BMP180;58935;54.498;18.544;2024-03-08T00:35:06;101588.80;;;0.20
71205;BMP180;58935;54.498;18.544;2024-03-08T00:37:32;101579.80;;;0.20
71205;BMP180;58935;54.498;18.544;2024-03-08T00:39:58;101575.20;;;0.20
71205;BMP180;58935;54.498;18.544;2024-03-08T00:42:24;101578.00;;;0.22
71205;BMP180;58935;54.498;18.544;2024-03-08T00:44:49;101577.20;;;0.20
71205;BMP180;58935;54.498;18.544;2024-03-08T00:47:16;101576.80;;;0.20
71205;BMP180;58935;54.498;18.544;2024-03-08T00:49:42;101572.00;;;0.20
71205;BMP180;58935;54.498;18.544;2024-03-08T00:52:07;101571.00;;;0.20
71205;BMP180;58935;54.498;18.544;2024-03-08T00:54:36;101571.20;;;0.20
71205;BMP180;58935;54.498;18.544;2024-03-08T00:57:03;101566.40;;;0.20
71205;BMP180;58935;54.498;18.544;2024-03-08T00:59:34;101568.00;;;0.20
71205;BMP180;58935;54.498;18.544;2024-03-08T01:02:00;101572.00;;;0.20
71205;BMP180;58935;54.498;18.544;2024-03-08T01:04:26;101565.40;;;0.10
71205;BMP180;58935;54.498;18.544;2024-03-08T01:06:54;101566.00;;;0.10
71205;BMP180;58935;54.498;18.544;2024-03-08T01:09:22;101567.40;;;0.10
71205;BMP180;58935;54.498;18.544;2024-03-08T01:11:50;101560.80;;;0.10
71205;BMP180;58935;54.498;18.544;2024-03-08T01:14:16;101555.20;;;0.10
71205;BMP180;58935;54.498;18.544;2024-03-08T01:16:41;101550.20;;;0.10
71205;BMP180;58935;54.498;18.544;2024-03-08T01:19:07;101544.60;;;0.10
71205;BMP180;58935;54.498;18.544;2024-03-08T01:21:32;101541.00;;;0.02
71205;BMP180;58935;54.498;18.544;2024-03-08T01:23:58;101535.40;;;0.00
71205;BMP180;58935;54.498;18.544;2024-03-08T01:26:28;101532.80;;;0.00
71205;BMP180;58935;54.498;18.544;2024-03-08T01:28:53;101531.00;;;0.00
71205;BMP180;58935;54.498;18.544;2024-03-08T01:31:19;101532.60;;;0.00
71205;BMP180;58935;54.498;18.544;2024-03-08T01:33:47;101529.20;;;0.00
71205;BMP180;58935;54.498;18.544;2024-03-08T01:36:13;101535.40;;;0.00
71205;BMP180;58935;54.498;18.544;2024-03-08T01:38:42;101530.60;;;0.00
71205;BMP180;58935;54.498;18.544;2024-03-08T01:41:07;101529.00;;;-0.10
71205;BMP180;58935;54.498;18.544;2024-03-08T01:43:34;101526.40;;;-0.10
71205;BMP180;58935;54.498;18.544;2024-03-08T01:46:00;101523.20;;;-0.10
71205;BMP180;58935;54.498;18.544;2024-03-08T01:48:28;101526.00;;;-0.10
71205;BMP180;58935;54.498;18.544;2024-03-08T01:50:57;101520.80;;;-0.04
71205;BMP180;58935;54.498;18.544;2024-03-08T01:53:24;101518.20;;;0.00
71205;BMP180;58935;54.498;18.544;2024-03-08T01:55:58;101512.80;;;0.00
71205;BMP180;58935;54.498;18.544;2024-03-08T01:58:27;101512.00;;;-0.08
71205;BMP180;58935;54.498;18.544;2024-03-08T02:00:55;101511.00;;;-0.10
71205;BMP180;58935;54.498;18.544;2024-03-08T02:03:21;101511.40;;;-0.10
71205;BMP180;58935;54.498;18.544;2024-03-08T02:05:47;101505.40;;;-0.10
71205;BMP180;58935;54.498;18.544;2024-03-08T02:08:13;101510.20;;;-0.10
71205;BMP180;58935;54.498;18.544;2024-03-08T02:10:41;101502.20;;;-0.10
71205;BMP180;58935;54.498;18.544;2024-03-08T02:13:07;101503.40;;;-0.10
71205;BMP180;58935;54.498;18.544;2024-03-08T02:18:09;101498.20;;;-0.10
71205;BMP180;58935;54.498;18.544;2024-03-08T02:20:38;101498.20;;;-0.10
71205;BMP180;58935;54.498;18.544;2024-03-08T02:23:03;101496.40;;;-0.10
71205;BMP180;58935;54.498;18.544;2024-03-08T02:27:56;101493.40;;;-0.10
71205;BMP180;58935;54.498;18.544;2024-03-08T02:30:21;101494.60;;;-0.10
71205;BMP180;58935;54.498;18.544;2024-03-08T02:32:49;101492.60;;;-0.08
71205;BMP180;58935;54.498;18.544;2024-03-08T02:35:14;101488.80;;;-0.10
71205;BMP180;58935;54.498;18.544;2024-03-08T02:37:42;101489.60;;;-0.10
71205;BMP180;58935;54.498;18.544;2024-03-08T02:40:08;101484.60;;;-0.10
71205;BMP180;58935;54.498;18.544;2024-03-08T02:42:33;101486.40;;;-0.10
71205;BMP180;58935;54.498;18.544;2024-03-08T02:44:58;101480.80;;;-0.12
71205;BMP180;58935;54.498;18.544;2024-03-08T02:47:24;101482.80;;;-0.12
71205;BMP180;58935;54.498;18.544;2024-03-08T02:49:51;101481.40;;;-0.20
71205;BMP180;58935;54.498;18.544;2024-03-08T02:52:19;101477.80;;;-0.28
71205;BMP180;58935;54.498;18.544;2024-03-08T02:54:46;101475.80;;;-0.30
71205;BMP180;58935;54.498;18.544;2024-03-08T02:57:12;101476.20;;;-0.38
71205;BMP180;58935;54.498;18.544;2024-03-08T02:59:37;101472.00;;;-0.40
71205;BMP180;58935;54.498;18.544;2024-03-08T03:02:04;101470.40;;;-0.40
71205;BMP180;58935;54.498;18.544;2024-03-08T03:04:31;101473.00;;;-0.40
71205;BMP180;58935;54.498;18.544;2024-03-08T03:06:58;101468.20;;;-0.40
71205;BMP180;58935;54.498;18.544;2024-03-08T03:09:23;101464.80;;;-0.40
71205;BMP180;58935;54.498;18.544;2024-03-08T03:11:53;101462.40;;;-0.40
71205;BMP180;58935;54.498;18.544;2024-03-08T03:14:21;101460.80;;;-0.42
71205;BMP180;58935;54.498;18.544;2024-03-08T03:16:47;101464.60;;;-0.50
71205;BMP180;58935;54.498;18.544;2024-03-08T03:19:12;101460.20;;;-0.50
71205;BMP180;58935;54.498;18.544;2024-03-08T03:21:38;101459.40;;;-0.50
71205;BMP180;58935;54.498;18.544;2024-03-08T03:24:04;101462.80;;;-0.58
71205;BMP180;58935;54.498;18.544;2024-03-08T03:26:36;101453.60;;;-0.60
71205;BMP180;58935;54.498;18.544;2024-03-08T03:29:05;101458.60;;;-0.60
71205;BMP180;58935;54.498;18.544;2024-03-08T03:31:34;101458.60;;;-0.60
71205;BMP180;58935;54.498;18.544;2024-03-08T03:34:00;101460.20;;;-0.60
71205;BMP180;58935;54.498;18.544;2024-03-08T03:36:29;101463.20;;;-0.60
71205;BMP180;58935;54.498;18.544;2024-03-08T03:38:55;101462.60;;;-0.50
71205;BMP180;58935;54.498;18.544;2024-03-08T03:41:34;101466.00;;;-0.50
71205;BMP180;58935;54.498;18.544;2024-03-08T03:44:00;101468.20;;;-0.50
71205;BMP180;58935;54.498;18.544;2024-03-08T03:46:25;101466.60;;;-0.40
71205;BMP180;58935;54.498;18.544;2024-03-08T03:48:53;101463.60;;;-0.40
71205;BMP180;58935;54.498;18.544;2024-03-08T03:51:19;101462.80;;;-0.40
71205;BMP180;58935;54.498;18.544;2024-03-08T03:53:45;101459.60;;;-0.40
71205;BMP180;58935;54.498;18.544;2024-03-08T03:56:12;101462.60;;;-0.40
71205;BMP180;58935;54.498;18.544;2024-03-08T03:58:40;101460.40;;;-0.40
71205;BMP180;58935;54.498;18.544;2024-03-08T04:01:08;101455.80;;;-0.40
71205;BMP180;58935;54.498;18.544;2024-03-08T04:03:35;101455.80;;;-0.40
71205;BMP180;58935;54.498;18.544;2024-03-08T04:06:01;101457.20;;;-0.36
71205;BMP180;58935;54.498;18.544;2024-03-08T04:08:29;101451.40;;;-0.34
71205;BMP180;58935;54.498;18.544;2024-03-08T04:10:55;101452.40;;;-0.30
71205;BMP180;58935;54.498;18.544;2024-03-08T04:13:20;101449.60;;;-0.30
71205;BMP180;58935;54.498;18.544;2024-03-08T04:15:45;101452.60;;;-0.30
71205;BMP180;58935;54.498;18.544;2024-03-08T04:18:13;101441.20;;;-0.20
71205;BMP180;58935;54.498;18.544;2024-03-08T04:20:41;101444.80;;;-0.18
71205;BMP180;58935;54.498;18.544;2024-03-08T04:23:06;101440.80;;;-0.10
71205;BMP180;58935;54.498;18.544;2024-03-08T04:25:32;101440.00;;;0.00
71205;BMP180;58935;54.498;18.544;2024-03-08T04:27:57;101437.00;;;0.00
71205;BMP180;58935;54.498;18.544;2024-03-08T04:30:22;101437.00;;;0.08
71205;BMP180;58935;54.498;18.544;2024-03-08T04:32:48;101439.60;;;0.10
71205;BMP180;58935;54.498;18.544;2024-03-08T04:35:14;101433.80;;;0.10
71205;BMP180;58935;54.498;18.544;2024-03-08T04:37:40;101431.60;;;0.10
71205;BMP180;58935;54.498;18.544;2024-03-08T04:40:08;101435.40;;;0.10
71205;BMP180;58935;54.498;18.544;2024-03-08T04:42:37;101432.80;;;0.20
71205;BMP180;58935;54.498;18.544;2024-03-08T04:45:03;101434.40;;;0.20
71205;BMP180;58935;54.498;18.544;2024-03-08T04:47:29;101435.60;;;0.24
71205;BMP180;58935;54.498;18.544;2024-03-08T04:49:54;101431.40;;;0.30
71205;BMP180;58935;54.498;18.544;2024-03-08T04:52:21;101434.00;;;0.30
71205;BMP180;58935;54.498;18.544;2024-03-08T04:54:47;101434.40;;;0.30
71205;BMP180;58935;54.498;18.544;2024-03-08T04:57:12;101437.40;;;0.40
71205;BMP180;58935;54.498;18.544;2024-03-08T04:59:38;101432.60;;;0.38
71205;BMP180;58935;54.498;18.544;2024-03-08T05:02:03;101434.40;;;0.40
71205;BMP180;58935;54.498;18.544;2024-03-08T05:04:29;101432.60;;;0.40
71205;BMP180;58935;54.498;18.544;2024-03-08T05:06:55;101432.20;;;0.40
71205;BMP180;58935;54.498;18.544;2024-03-08T05:09:20;101431.80;;;0.40
71205;BMP180;58935;54.498;18.544;2024-03-08T05:11:48;101435.20;;;0.44
71205;BMP180;58935;54.498;18.544;2024-03-08T05:14:15;101437.20;;;0.50
71205;BMP180;58935;54.498;18.544;2024-03-08T05:16:44;101436.40;;;0.50
71205;BMP180;58935;54.498;18.544;2024-03-08T05:19:14;101438.40;;;0.60
71205;BMP180;58935;54.498;18.544;2024-03-08T05:21:42;101433.60;;;0.60
71205;BMP180;58935;54.498;18.544;2024-03-08T05:24:08;101439.00;;;0.66
71205;BMP180;58935;54.498;18.544;2024-03-08T05:26:35;101435.00;;;0.70
71205;BMP180;58935;54.498;18.544;2024-03-08T05:29:00;101427.80;;;0.80
71205;BMP180;58935;54.498;18.544;2024-03-08T05:31:27;101433.80;;;0.80
71205;BMP180;58935;54.498;18.544;2024-03-08T05:33:53;101437.00;;;0.80
71205;BMP180;58935;54.498;18.544;2024-03-08T05:36:22;101436.40;;;0.80
71205;BMP180;58935;54.498;18.544;2024-03-08T05:38:48;101435.00;;;0.82
71205;BMP180;58935;54.498;18.544;2024-03-08T05:41:16;101434.00;;;0.90
71205;BMP180;58935;54.498;18.544;2024-03-08T05:43:41;101431.80;;;0.94
71205;BMP180;58935;54.498;18.544;2024-03-08T05:46:07;101434.00;;;1.00
71205;BMP180;58935;54.498;18.544;2024-03-08T05:48:32;101434.00;;;1.00
71205;BMP180;58935;54.498;18.544;2024-03-08T05:51:00;101431.60;;;1.10
71205;BMP180;58935;54.498;18.544;2024-03-08T05:53:25;101428.20;;;1.10
71205;BMP180;58935;54.498;18.544;2024-03-08T05:55:51;101428.40;;;1.10
71205;BMP180;58935;54.498;18.544;2024-03-08T05:58:17;101430.40;;;1.20
71205;BMP180;58935;54.498;18.544;2024-03-08T06:00:42;101425.80;;;1.20
71205;BMP180;58935;54.498;18.544;2024-03-08T06:03:07;101422.00;;;1.20
71205;BMP180;58935;54.498;18.544;2024-03-08T06:05:33;101428.00;;;1.24
71205;BMP180;58935;54.498;18.544;2024-03-08T06:07:58;101423.80;;;1.30
71205;BMP180;58935;54.498;18.544;2024-03-08T06:10:24;101422.80;;;1.30
71205;BMP180;58935;54.498;18.544;2024-03-08T06:12:49;101419.20;;;1.32
71205;BMP180;58935;54.498;18.544;2024-03-08T06:15:15;101415.00;;;1.38
71205;BMP180;58935;54.498;18.544;2024-03-08T06:17:41;101421.60;;;1.40
71205;BMP180;58935;54.498;18.544;2024-03-08T06:20:07;101424.20;;;1.34
71205;BMP180;58935;54.498;18.544;2024-03-08T06:22:37;101423.80;;;1.40
71205;BMP180;58935;54.498;18.544;2024-03-08T06:25:08;101434.20;;;1.40
71205;BMP180;58935;54.498;18.544;2024-03-08T06:27:33;101430.40;;;1.46
71205;BMP180;58935;54.498;18.544;2024-03-08T06:30:00;101432.00;;;1.48
71205;BMP180;58935;54.498;18.544;2024-03-08T06:32:30;101433.80;;;1.50
71205;BMP180;58935;54.498;18.544;2024-03-08T06:34:55;101433.00;;;1.50
71205;BMP180;58935;54.498;18.544;2024-03-08T06:37:23;101433.80;;;1.60
71205;BMP180;58935;54.498;18.544;2024-03-08T06:39:49;101438.80;;;1.60
71205;BMP180;58935;54.498;18.544;2024-03-08T06:42:15;101440.60;;;1.60
71205;BMP180;58935;54.498;18.544;2024-03-08T06:44:41;101440.60;;;1.60
71205;BMP180;58935;54.498;18.544;2024-03-08T06:47:14;101442.40;;;1.60
71205;BMP180;58935;54.498;18.544;2024-03-08T06:49:42;101440.80;;;1.70
71205;BMP180;58935;54.498;18.544;2024-03-08T06:52:09;101442.40;;;1.70
71205;BMP180;58935;54.498;18.544;2024-03-08T06:54:35;101443.40;;;1.62
71205;BMP180;58935;54.498;18.544;2024-03-08T06:57:03;101442.60;;;1.60
71205;BMP180;58935;54.498;18.544;2024-03-08T06:59:29;101444.20;;;1.70
71205;BMP180;58935;54.498;18.544;2024-03-08T07:01:54;101441.60;;;1.80
71205;BMP180;58935;54.498;18.544;2024-03-08T07:04:20;101444.20;;;1.80
71205;BMP180;58935;54.498;18.544;2024-03-08T07:06:48;101446.20;;;1.90
71205;BMP180;58935;54.498;18.544;2024-03-08T07:09:15;101446.40;;;1.90
71205;BMP180;58935;54.498;18.544;2024-03-08T07:11:42;101446.60;;;1.90
71205;BMP180;58935;54.498;18.544;2024-03-08T07:14:08;101446.20;;;1.86
71205;BMP180;58935;54.498;18.544;2024-03-08T07:16:35;101442.20;;;1.90
71205;BMP180;58935;54.498;18.544;2024-03-08T07:19:03;101439.60;;;2.00
71205;BMP180;58935;54.498;18.544;2024-03-08T07:21:28;101430.40;;;2.12
71205;BMP180;58935;54.498;18.544;2024-03-08T07:23:54;101433.60;;;2.20
71205;BMP180;58935;54.498;18.544;2024-03-08T07:26:34;101434.00;;;2.20
71205;BMP180;58935;54.498;18.544;2024-03-08T07:29:05;101436.60;;;2.20
71205;BMP180;58935;54.498;18.544;2024-03-08T07:31:30;101432.60;;;2.30
71205;BMP180;58935;54.498;18.544;2024-03-08T07:34:09;101431.80;;;2.30
71205;BMP180;58935;54.498;18.544;2024-03-08T07:36:35;101430.60;;;2.30
71205;BMP180;58935;54.498;18.544;2024-03-08T07:39:01;101427.00;;;2.20
71205;BMP180;58935;54.498;18.544;2024-03-08T07:41:26;101425.00;;;2.20
71205;BMP180;58935;54.498;18.544;2024-03-08T07:43:51;101420.80;;;2.20
71205;BMP180;58935;54.498;18.544;2024-03-08T07:46:17;101420.80;;;2.30
71205;BMP180;58935;54.498;18.544;2024-03-08T07:48:44;101416.80;;;2.20
71205;BMP180;58935;54.498;18.544;2024-03-08T07:51:10;101419.20;;;2.10
71205;BMP180;58935;54.498;18.544;2024-03-08T07:53:38;101418.60;;;2.10
71205;BMP180;58935;54.498;18.544;2024-03-08T07:58:42;101419.00;;;1.96
71205;BMP180;58935;54.498;18.544;2024-03-08T08:01:08;101411.00;;;1.94
71205;BMP180;58935;54.498;18.544;2024-03-08T08:03:34;101411.20;;;1.98
71205;BMP180;58935;54.498;18.544;2024-03-08T08:06:02;101408.60;;;2.00
71205;BMP180;58935;54.498;18.544;2024-03-08T08:08:29;101406.00;;;2.00
71205;BMP180;58935;54.498;18.544;2024-03-08T08:11:06;101404.40;;;2.10
71205;BMP180;58935;54.498;18.544;2024-03-08T08:13:34;101408.20;;;2.10
71205;BMP180;58935;54.498;18.544;2024-03-08T08:16:02;101409.00;;;2.10
71205;BMP180;58935;54.498;18.544;2024-03-08T08:18:30;101411.20;;;2.04
71205;BMP180;58935;54.498;18.544;2024-03-08T08:20:55;101408.20;;;2.10
71205;BMP180;58935;54.498;18.544;2024-03-08T08:23:29;101410.40;;;2.10
71205;BMP180;58935;54.498;18.544;2024-03-08T08:25:59;101413.20;;;2.12
71205;BMP180;58935;54.498;18.544;2024-03-08T08:28:25;101415.00;;;2.20
71205;BMP180;58935;54.498;18.544;2024-03-08T08:30:50;101408.80;;;2.30
71205;BMP180;58935;54.498;18.544;2024-03-08T08:33:16;101412.00;;;2.30
71205;BMP180;58935;54.498;18.544;2024-03-08T08:35:41;101414.00;;;2.20
71205;BMP180;58935;54.498;18.544;2024-03-08T08:38:08;101408.20;;;2.20
71205;BMP180;58935;54.498;18.544;2024-03-08T08:40:34;101404.40;;;2.10
71205;BMP180;58935;54.498;18.544;2024-03-08T08:43:01;101404.80;;;2.02
71205;BMP180;58935;54.498;18.544;2024-03-08T08:45:30;101403.00;;;2.00
71205;BMP180;58935;54.498;18.544;2024-03-08T08:47:56;101399.80;;;1.90
71205;BMP180;58935;54.498;18.544;2024-03-08T08:50:27;101396.40;;;1.90
71205;BMP180;58935;54.498;18.544;2024-03-08T08:52:54;101399.60;;;1.90
71205;BMP180;58935;54.498;18.544;2024-03-08T08:55:20;101400.20;;;1.90
71205;BMP180;58935;54.498;18.544;2024-03-08T08:57:51;101400.00;;;1.90
71205;BMP180;58935;54.498;18.544;2024-03-08T09:00:19;101402.60;;;2.00
71205;BMP180;58935;54.498;18.544;2024-03-08T09:02:45;101402.80;;;2.00
71205;BMP180;58935;54.498;18.544;2024-03-08T09:05:10;101404.00;;;2.10
71205;BMP180;58935;54.498;18.544;2024-03-08T09:07:37;101401.00;;;2.16
71205;BMP180;58935;54.498;18.544;2024-03-08T09:10:04;101398.00;;;2.20
71205;BMP180;58935;54.498;18.544;2024-03-08T09:12:29;101396.40;;;2.20
71205;BMP180;58935;54.498;18.544;2024-03-08T09:14:55;101399.60;;;2.22
71205;BMP180;58935;54.498;18.544;2024-03-08T09:17:25;101390.40;;;2.30
71205;BMP180;58935;54.498;18.544;2024-03-08T09:19:50;101389.00;;;2.30
71205;BMP180;58935;54.498;18.544;2024-03-08T09:22:16;101389.40;;;2.30
71205;BMP180;58935;54.498;18.544;2024-03-08T09:24:41;101385.00;;;2.40
71205;BMP180;58935;54.498;18.544;2024-03-08T09:27:09;101388.00;;;2.50
71205;BMP180;58935;54.498;18.544;2024-03-08T09:29:37;101384.20;;;2.56
71205;BMP180;58935;54.498;18.544;2024-03-08T09:32:03;101379.80;;;2.60
71205;BMP180;58935;54.498;18.544;2024-03-08T09:34:30;101379.60;;;2.60
71205;BMP180;58935;54.498;18.544;2024-03-08T09:36:56;101378.00;;;2.60
71205;BMP180;58935;54.498;18.544;2024-03-08T09:39:21;101382.80;;;2.60
71205;BMP180;58935;54.498;18.544;2024-03-08T09:41:47;101374.80;;;2.58
71205;BMP180;58935;54.498;18.544;2024-03-08T09:44:14;101378.80;;;2.50
71205;BMP180;58935;54.498;18.544;2024-03-08T09:46:40;101376.60;;;2.50
71205;BMP180;58935;54.498;18.544;2024-03-08T09:49:08;101374.00;;;2.54
71205;BMP180;58935;54.498;18.544;2024-03-08T09:51:36;101379.40;;;2.50
71205;BMP180;58935;54.498;18.544;2024-03-08T09:54:02;101374.80;;;2.50
71205;BMP180;58935;54.498;18.544;2024-03-08T09:56:32;101369.60;;;2.50
71205;BMP180;58935;54.498;18.544;2024-03-08T09:58:59;101366.80;;;2.50
71205;BMP180;58935;54.498;18.544;2024-03-08T10:01:30;101366.00;;;2.50
71205;BMP180;58935;54.498;18.544;2024-03-08T10:03:57;101360.60;;;2.50
71205;BMP180;58935;54.498;18.544;2024-03-08T10:06:23;101364.20;;;2.50
71205;BMP180;58935;54.498;18.544;2024-03-08T10:08:49;101362.00;;;2.50
71205;BMP180;58935;54.498;18.544;2024-03-08T10:11:18;101362.60;;;2.50
71205;BMP180;58935;54.498;18.544;2024-03-08T10:13:45;101360.60;;;2.50
71205;BMP180;58935;54.498;18.544;2024-03-08T10:16:12;101357.40;;;2.60
71205;BMP180;58935;54.498;18.544;2024-03-08T10:18:37;101356.20;;;2.60
71205;BMP180;58935;54.498;18.544;2024-03-08T10:21:07;101362.20;;;2.60
71205;BMP180;58935;54.498;18.544;2024-03-08T10:23:35;101361.60;;;2.70
71205;BMP180;58935;54.498;18.544;2024-03-08T10:26:09;101361.20;;;2.60
71205;BMP180;58935;54.498;18.544;2024-03-08T10:28:35;101357.60;;;2.60
71205;BMP180;58935;54.498;18.544;2024-03-08T10:31:02;101358.40;;;2.50
71205;BMP180;58935;54.498;18.544;2024-03-08T10:33:28;101359.80;;;2.50
71205;BMP180;58935;54.498;18.544;2024-03-08T10:35:53;101362.60;;;2.40
71205;BMP180;58935;54.498;18.544;2024-03-08T10:38:20;101361.80;;;2.40
71205;BMP180;58935;54.498;18.544;2024-03-08T10:40:48;101360.40;;;2.40
71205;BMP180;58935;54.498;18.544;2024-03-08T10:43:23;101362.00;;;2.40
71205;BMP180;58935;54.498;18.544;2024-03-08T10:46:04;101360.60;;;2.30
71205;BMP180;58935;54.498;18.544;2024-03-08T10:48:43;101358.20;;;2.30
71205;BMP180;58935;54.498;18.544;2024-03-08T10:51:11;101361.00;;;2.30
71205;BMP180;58935;54.498;18.544;2024-03-08T10:53:38;101362.40;;;2.20
71205;BMP180;58935;54.498;18.544;2024-03-08T10:56:07;101366.00;;;2.20
71205;BMP180;58935;54.498;18.544;2024-03-08T10:58:36;101365.60;;;2.22
71205;BMP180;58935;54.498;18.544;2024-03-08T11:01:02;101356.00;;;2.20
71205;BMP180;58935;54.498;18.544;2024-03-08T11:03:43;101351.80;;;2.20
71205;BMP180;58935;54.498;18.544;2024-03-08T11:06:16;101352.80;;;2.22
71205;BMP180;58935;54.498;18.544;2024-03-08T11:08:43;101347.00;;;2.30
71205;BMP180;58935;54.498;18.544;2024-03-08T11:13:44;101343.40;;;2.30
71205;BMP180;58935;54.498;18.544;2024-03-08T11:16:12;101349.00;;;2.20
71205;BMP180;58935;54.498;18.544;2024-03-08T11:18:38;101345.80;;;2.28
71205;BMP180;58935;54.498;18.544;2024-03-08T11:21:08;101343.60;;;2.30
71205;BMP180;58935;54.498;18.544;2024-03-08T11:23:38;101345.80;;;2.30
71205;BMP180;58935;54.498;18.544;2024-03-08T11:26:19;101343.20;;;2.36
71205;BMP180;58935;54.498;18.544;2024-03-08T11:28:45;101334.00;;;2.38
71205;BMP180;58935;54.498;18.544;2024-03-08T11:31:27;101338.80;;;2.40
71205;BMP180;58935;54.498;18.544;2024-03-08T11:33:53;101333.00;;;2.38
71205;BMP180;58935;54.498;18.544;2024-03-08T11:36:22;101333.00;;;2.40
71205;BMP180;58935;54.498;18.544;2024-03-08T11:38:51;101343.80;;;2.50
71205;BMP180;58935;54.498;18.544;2024-03-08T11:41:22;101339.40;;;2.50
71205;BMP180;58935;54.498;18.544;2024-03-08T11:43:50;101341.40;;;2.50
71205;BMP180;58935;54.498;18.544;2024-03-08T11:46:26;101336.20;;;2.52
71205;BMP180;58935;54.498;18.544;2024-03-08T11:48:54;101339.20;;;2.52
71205;BMP180;58935;54.498;18.544;2024-03-08T11:51:21;101334.60;;;2.60
71205;BMP180;58935;54.498;18.544;2024-03-08T11:53:50;101339.40;;;2.60
71205;BMP180;58935;54.498;18.544;2024-03-08T11:56:16;101333.60;;;2.60
71205;BMP180;58935;54.498;18.544;2024-03-08T11:58:52;101335.80;;;2.68
71205;BMP180;58935;54.498;18.544;2024-03-08T12:01:18;101335.80;;;2.70
71205;BMP180;58935;54.498;18.544;2024-03-08T12:03:43;101327.20;;;2.70
71205;BMP180;58935;54.498;18.544;2024-03-08T12:06:10;101326.60;;;2.70
71205;BMP180;58935;54.498;18.544;2024-03-08T12:08:38;101323.20;;;2.70
71205;BMP180;58935;54.498;18.544;2024-03-08T12:11:04;101317.60;;;2.70
71205;BMP180;58935;54.498;18.544;2024-03-08T12:13:33;101313.20;;;2.80
71205;BMP180;58935;54.498;18.544;2024-03-08T12:16:02;101312.60;;;2.80
71205;BMP180;58935;54.498;18.544;2024-03-08T12:18:38;101313.00;;;2.94
71205;BMP180;58935;54.498;18.544;2024-03-08T12:21:07;101313.40;;;3.02
71205;BMP180;58935;54.498;18.544;2024-03-08T12:23:35;101309.60;;;3.00
71205;BMP180;58935;54.498;18.544;2024-03-08T12:28:39;101314.20;;;3.10
71205;BMP180;58935;54.498;18.544;2024-03-08T12:31:07;101305.40;;;3.10
71205;BMP180;58935;54.498;18.544;2024-03-08T12:33:48;101303.00;;;3.10
71205;BMP180;58935;54.498;18.544;2024-03-08T12:36:15;101300.40;;;3.10
71205;BMP180;58935;54.498;18.544;2024-03-08T12:38:44;101300.40;;;3.10
71205;BMP180;58935;54.498;18.544;2024-03-08T12:41:17;101299.00;;;3.10
71205;BMP180;58935;54.498;18.544;2024-03-08T12:43:43;101297.40;;;3.10
71205;BMP180;58935;54.498;18.544;2024-03-08T12:46:16;101292.40;;;3.10
71205;BMP180;58935;54.498;18.544;2024-03-08T12:48:43;101285.40;;;3.14
71205;BMP180;58935;54.498;18.544;2024-03-08T12:51:13;101285.60;;;3.20
71205;BMP180;58935;54.498;18.544;2024-03-08T12:53:38;101281.20;;;3.20
71205;BMP180;58935;54.498;18.544;2024-03-08T12:56:06;101282.60;;;3.20
71205;BMP180;58935;54.498;18.544;2024-03-08T12:58:34;101283.00;;;3.22
71205;BMP180;58935;54.498;18.544;2024-03-08T13:01:04;101284.80;;;3.26
71205;BMP180;58935;54.498;18.544;2024-03-08T13:03:33;101292.00;;;3.20
71205;BMP180;58935;54.498;18.544;2024-03-08T13:06:01;101288.60;;;3.20
71205;BMP180;58935;54.498;18.544;2024-03-08T13:08:28;101286.80;;;3.20
71205;BMP180;58935;54.498;18.544;2024-03-08T13:10:55;101286.40;;;3.30
71205;BMP180;58935;54.498;18.544;2024-03-08T13:13:20;101282.80;;;3.30
71205;BMP180;58935;54.498;18.544;2024-03-08T13:15:45;101285.80;;;3.20
71205;BMP180;58935;54.498;18.544;2024-03-08T13:18:11;101286.80;;;3.20
71205;BMP180;58935;54.498;18.544;2024-03-08T13:20:36;101284.00;;;3.20
71205;BMP180;58935;54.498;18.544;2024-03-08T13:23:04;101283.40;;;3.20
71205;BMP180;58935;54.498;18.544;2024-03-08T13:25:31;101280.60;;;3.10
71205;BMP180;58935;54.498;18.544;2024-03-08T13:27:56;101281.60;;;3.10
71205;BMP180;58935;54.498;18.544;2024-03-08T13:30:25;101281.60;;;3.10
71205;BMP180;58935;54.498;18.544;2024-03-08T13:32:53;101274.00;;;3.08
71205;BMP180;58935;54.498;18.544;2024-03-08T13:35:19;101274.40;;;3.00
71205;BMP180;58935;54.498;18.544;2024-03-08T13:37:52;101270.80;;;2.80
71205;BMP180;58935;54.498;18.544;2024-03-08T13:40:17;101267.00;;;2.72
71205;BMP180;58935;54.498;18.544;2024-03-08T13:42:46;101263.60;;;2.70
71205;BMP180;58935;54.498;18.544;2024-03-08T13:45:12;101258.60;;;2.72
71205;BMP180;58935;54.498;18.544;2024-03-08T13:47:39;101255.40;;;2.80
71205;BMP180;58935;54.498;18.544;2024-03-08T13:50:07;101251.40;;;2.90
71205;BMP180;58935;54.498;18.544;2024-03-08T13:52:33;101252.80;;;2.90
71205;BMP180;58935;54.498;18.544;2024-03-08T13:55:01;101246.40;;;2.90
71205;BMP180;58935;54.498;18.544;2024-03-08T13:57:31;101245.00;;;2.90
71205;BMP180;58935;54.498;18.544;2024-03-08T13:59:59;101246.40;;;2.90
71205;BMP180;58935;54.498;18.544;2024-03-08T14:02:27;101248.60;;;2.88
71205;BMP180;58935;54.498;18.544;2024-03-08T14:04:54;101251.00;;;2.80
71205;BMP180;58935;54.498;18.544;2024-03-08T14:07:21;101253.20;;;2.90